createdAt,value
2022-11-12T00:00:25.356Z,49.30
2022-11-12T00:02:59.115Z,48.40
2022-11-12T00:05:33.067Z,46.58
2022-11-12T00:08:07.082Z,47.38
2022-11-12T00:10:34.545Z,44.95
2022-11-12T00:13:01.683Z,50.50
2022-11-12T00:15:36.208Z,56.00
2022-11-12T00:18:03.462Z,46.08
2022-11-12T00:20:30.564Z,57.25
2022-11-12T00:23:04.061Z,46.50
2022-11-12T00:25:31.420Z,63.10
2022-11-12T00:28:02.413Z,52.28
2022-11-12T00:30:36.063Z,56.60
2022-11-12T00:33:04.187Z,62.10
2022-11-12T00:35:41.258Z,44.30
2022-11-12T00:38:08.489Z,43.05
2022-11-12T00:40:42.099Z,53.75
2022-11-12T00:43:09.529Z,58.38
2022-11-12T00:45:36.634Z,54.58
2022-11-12T00:48:09.961Z,42.65
2022-11-12T00:50:37.381Z,60.33
2022-11-12T00:53:11.114Z,46.38
2022-11-12T00:55:38.408Z,49.03
2022-11-12T00:58:05.623Z,45.67
2022-11-12T01:00:38.973Z,47.72
2022-11-12T01:03:06.367Z,50.30
2022-11-12T01:05:46.997Z,59.55
2022-11-12T01:08:14.290Z,51.63
2022-11-12T01:10:48.094Z,50.67
2022-11-12T01:13:15.407Z,52.00
2022-11-12T01:15:42.992Z,45.90
2022-11-12T01:20:44.391Z,45.13
2022-11-12T01:23:18.029Z,52.30
2022-11-12T01:25:45.455Z,44.72
2022-11-12T01:28:12.570Z,63.17
2022-11-12T01:30:46.001Z,50.38
2022-11-12T01:33:13.250Z,42.95
2022-11-12T01:35:42.792Z,53.58
2022-11-12T01:38:16.083Z,56.95
2022-11-12T01:40:43.261Z,56.00
2022-11-12T01:43:13.618Z,49.67
2022-11-12T01:45:52.145Z,55.47
2022-11-12T01:48:39.804Z,47.28
2022-11-12T01:51:15.210Z,50.88
2022-11-12T01:53:45.139Z,63.10
2022-11-12T01:56:12.606Z,50.25
2022-11-12T01:58:47.040Z,55.45
2022-11-12T02:01:21.016Z,55.33
2022-11-12T02:04:08.165Z,52.80
2022-11-12T02:06:42.176Z,56.80
2022-11-12T02:09:10.416Z,47.28
2022-11-12T02:11:37.615Z,55.42
2022-11-12T02:14:12.101Z,46.28
2022-11-12T02:16:43.835Z,50.22
2022-11-12T02:19:19.170Z,55.92
2022-11-12T02:21:46.687Z,41.47
2022-11-12T02:26:50.090Z,50.95
2022-11-12T02:29:17.258Z,47.03
2022-11-12T02:31:51.215Z,55.65
2022-11-12T02:34:18.392Z,50.42
2022-11-12T02:36:45.530Z,54.53
2022-11-12T02:39:19.108Z,53.17
2022-11-12T02:41:46.333Z,49.42
2022-11-12T02:44:20.248Z,46.13
2022-11-12T02:46:47.459Z,49.03
2022-11-12T02:49:14.586Z,47.08
2022-11-12T02:51:48.247Z,51.15
2022-11-12T02:54:15.532Z,53.72
2022-11-12T02:56:42.633Z,56.40
2022-11-12T02:59:16.186Z,52.35
2022-11-12T03:01:43.441Z,51.90
2022-11-12T03:04:17.132Z,46.75
2022-11-12T03:06:51.151Z,50.20
2022-11-12T03:09:25.160Z,45.45
2022-11-12T03:11:52.370Z,43.53
2022-11-12T03:14:19.618Z,53.92
2022-11-12T03:16:52.981Z,50.45
2022-11-12T03:19:20.413Z,54.20
2022-11-12T03:21:54.001Z,46.53
2022-11-12T03:24:21.254Z,54.10
2022-11-12T03:26:48.333Z,44.15
2022-11-12T03:29:21.993Z,39.38
2022-11-12T03:31:49.278Z,46.08
2022-11-12T03:34:23.044Z,47.38
2022-11-12T03:36:50.296Z,38.55
2022-11-12T03:39:17.449Z,50.33
2022-11-12T03:41:51.023Z,61.83
2022-11-12T03:44:18.250Z,51.90
2022-11-12T03:46:52.155Z,58.58
2022-11-12T03:49:19.373Z,53.75
2022-11-12T03:51:46.871Z,49.72
2022-11-12T03:54:20.022Z,47.65
2022-11-12T03:56:47.419Z,64.20
2022-11-12T03:59:21.167Z,44.20
2022-11-12T04:01:48.443Z,53.08
2022-11-12T04:04:29.184Z,49.85
2022-11-12T04:07:21.717Z,43.90
2022-11-12T04:09:55.058Z,58.28
2022-11-12T04:12:47.938Z,47.90
2022-11-12T04:15:22.046Z,47.40
2022-11-12T04:18:08.185Z,56.22
2022-11-12T04:21:00.155Z,52.05
2022-11-12T04:23:27.588Z,53.13
2022-11-12T04:26:20.181Z,52.28
2022-11-12T04:29:06.508Z,57.17
2022-11-12T04:31:40.392Z,54.63
2022-11-12T04:34:33.855Z,46.15
2022-11-12T04:37:08.063Z,45.10
2022-11-12T04:39:35.768Z,51.80
2022-11-12T04:42:28.058Z,53.28
2022-11-12T04:45:12.109Z,64.25
2022-11-12T04:47:40.440Z,58.28
2022-11-12T04:50:22.142Z,45.65
2022-11-12T04:52:49.227Z,54.38
2022-11-12T04:55:23.073Z,46.10
2022-11-12T04:57:50.338Z,52.08
2022-11-12T05:00:17.758Z,52.45
2022-11-12T05:02:51.043Z,43.17
2022-11-12T05:05:39.213Z,51.85
2022-11-12T05:08:13.052Z,51.97
2022-11-12T05:10:40.315Z,60.88
2022-11-12T05:13:07.431Z,43.85
2022-11-12T05:15:41.284Z,52.25
2022-11-12T05:18:08.517Z,43.15
2022-11-12T05:20:36.294Z,44.58
2022-11-12T05:23:10.153Z,56.95
2022-11-12T05:25:37.357Z,52.97
2022-11-12T05:28:11.083Z,55.17
2022-11-12T05:30:38.482Z,49.83
2022-11-12T05:33:12.196Z,46.63
2022-11-12T05:35:39.747Z,49.20
2022-11-12T05:38:06.986Z,56.92
2022-11-12T05:40:41.196Z,44.30
2022-11-12T05:43:08.413Z,43.88
2022-11-12T05:45:42.263Z,44.92
2022-11-12T05:48:09.435Z,61.58
2022-11-12T05:50:51.215Z,45.63
2022-11-12T05:53:30.115Z,54.53
2022-11-12T05:56:06.893Z,56.38
2022-11-12T05:58:41.255Z,64.50
2022-11-12T06:01:08.506Z,54.75
2022-11-12T06:03:35.768Z,48.08
2022-11-12T06:06:09.138Z,56.50
2022-11-12T06:08:36.342Z,54.42
2022-11-12T06:11:03.472Z,56.05
2022-11-12T06:13:47.259Z,61.08
2022-11-12T06:16:14.464Z,66.97
2022-11-12T06:18:49.286Z,58.80
2022-11-12T06:21:19.370Z,60.88
2022-11-12T06:23:46.990Z,49.05
2022-11-12T06:28:48.375Z,51.65
2022-11-12T06:31:15.818Z,52.70
2022-11-12T06:33:50.185Z,60.15
2022-11-12T06:36:18.764Z,54.40
2022-11-12T06:38:53.267Z,61.22
2022-11-12T06:41:20.535Z,55.75
2022-11-12T06:43:47.625Z,59.70
2022-11-12T06:46:22.283Z,59.65
2022-11-12T06:48:49.527Z,59.30
2022-11-12T06:51:25.269Z,59.10
2022-11-12T06:53:52.522Z,50.30
2022-11-12T06:56:19.725Z,55.42
2022-11-12T06:58:53.284Z,53.90
2022-11-12T07:01:20.686Z,47.67
2022-11-12T07:03:58.170Z,49.75
2022-11-12T07:06:32.082Z,61.92
2022-11-12T07:09:06.300Z,53.60
2022-11-12T07:11:33.536Z,58.88
2022-11-12T07:14:00.656Z,53.20
2022-11-12T07:16:34.233Z,47.58
2022-11-12T07:19:01.559Z,65.13
2022-11-12T07:21:35.157Z,56.65
2022-11-12T07:24:02.300Z,59.40
2022-11-12T07:26:36.297Z,57.30
2022-11-12T07:29:03.507Z,63.97
2022-11-12T07:31:30.610Z,62.30
2022-11-12T07:34:04.238Z,51.22
2022-11-12T07:36:31.483Z,66.57
2022-11-12T07:39:05.184Z,52.75
2022-11-12T07:41:32.339Z,66.93
2022-11-12T07:44:06.240Z,62.88
2022-11-12T07:46:33.547Z,71.72
2022-11-12T07:49:07.163Z,65.97
2022-11-12T07:51:34.384Z,57.90
2022-11-12T07:54:08.209Z,61.25
2022-11-12T07:56:35.511Z,62.70
2022-11-12T07:59:09.205Z,57.13
2022-11-12T08:01:40.492Z,47.30
2022-11-12T08:04:16.214Z,67.32
2022-11-12T08:06:50.202Z,63.47
2022-11-12T08:09:24.229Z,63.35
2022-11-12T08:11:51.405Z,63.30
2022-11-12T08:14:18.553Z,65.20
2022-11-12T08:16:53.347Z,61.65
2022-11-12T08:19:20.582Z,69.03
2022-11-12T08:21:54.411Z,82.80
2022-11-12T08:24:21.641Z,54.72
2022-11-12T08:26:48.726Z,59.83
2022-11-12T08:29:22.271Z,67.88
2022-11-12T08:31:49.513Z,74.82
2022-11-12T08:34:23.115Z,74.95
2022-11-12T08:36:50.410Z,74.32
2022-11-12T08:39:24.251Z,86.20
2022-11-12T08:41:51.606Z,70.50
2022-11-12T08:44:18.710Z,70.45
2022-11-12T08:46:52.115Z,70.45
2022-11-12T08:49:19.452Z,74.60
2022-11-12T08:51:53.262Z,71.30
2022-11-12T08:54:20.514Z,64.82
2022-11-12T08:56:47.760Z,60.00
2022-11-12T08:59:21.113Z,66.88
2022-11-12T09:01:48.394Z,63.30
2022-11-12T09:04:22.305Z,66.82
2022-11-12T09:06:56.201Z,69.85
2022-11-12T09:09:30.265Z,70.65
2022-11-12T09:11:57.512Z,59.13
2022-11-12T09:14:24.588Z,63.88
2022-11-12T09:16:58.213Z,61.33
2022-11-12T09:19:25.452Z,64.65
2022-11-12T09:21:59.293Z,55.78
2022-11-12T09:24:26.464Z,61.67
2022-11-12T09:26:54.307Z,49.70
2022-11-12T09:29:28.223Z,61.20
2022-11-12T09:31:55.456Z,74.10
2022-11-12T09:34:22.677Z,74.50
2022-11-12T09:36:56.235Z,61.30
2022-11-12T09:39:23.475Z,63.92
2022-11-12T09:42:01.802Z,64.80
2022-11-12T09:44:35.589Z,70.32
2022-11-12T09:47:14.286Z,56.88
2022-11-12T09:49:50.180Z,57.38
2022-11-12T09:52:27.206Z,72.63
2022-11-12T09:55:14.842Z,59.40
2022-11-12T09:57:48.335Z,58.30
2022-11-12T10:00:19.577Z,64.47
2022-11-12T10:03:05.368Z,60.65
2022-11-12T10:05:54.240Z,61.22
2022-11-12T10:11:19.040Z,60.42
2022-11-12T10:14:11.196Z,56.97
2022-11-12T10:16:50.853Z,55.92
2022-11-12T10:19:40.344Z,57.70
2022-11-12T10:22:19.788Z,47.42
2022-11-12T10:24:54.358Z,64.80
2022-11-12T10:27:22.917Z,51.25
2022-11-12T10:30:01.439Z,59.50
2022-11-12T10:32:28.645Z,56.20
2022-11-12T10:34:55.747Z,59.40
2022-11-12T10:37:32.319Z,51.65
2022-11-12T10:39:59.465Z,62.33
2022-11-12T10:42:27.161Z,57.78
2022-11-12T10:45:01.228Z,54.95
2022-11-12T10:47:28.879Z,45.92
2022-11-12T10:50:11.449Z,70.95
2022-11-12T10:52:38.780Z,56.08
2022-11-12T10:55:08.237Z,51.85
2022-11-12T10:57:42.222Z,50.05
2022-11-12T11:00:18.172Z,50.25
2022-11-12T11:03:02.301Z,59.88
2022-11-12T11:05:51.149Z,60.40
2022-11-12T11:11:11.031Z,63.45
2022-11-12T11:13:44.317Z,68.60
2022-11-12T11:16:13.714Z,58.13
2022-11-12T11:18:49.342Z,54.50
2022-11-12T11:21:22.787Z,58.65
2022-11-12T11:23:59.449Z,62.35
2022-11-12T11:26:36.151Z,60.40
2022-11-12T11:29:30.327Z,54.25
2022-11-12T11:32:10.175Z,53.45
2022-11-12T11:34:56.404Z,50.40
2022-11-12T11:37:23.595Z,70.35
2022-11-12T11:40:16.464Z,45.13
2022-11-12T11:42:55.728Z,51.47
2022-11-12T11:45:34.940Z,54.65
2022-11-12T11:48:22.700Z,55.08
2022-11-12T11:51:15.470Z,55.13
2022-11-12T11:53:48.526Z,52.78
2022-11-12T11:56:26.493Z,49.22
2022-11-12T11:59:00.066Z,49.13
2022-11-12T12:01:36.395Z,62.65
2022-11-12T12:04:06.374Z,57.90
2022-11-12T12:06:54.315Z,47.50
2022-11-12T12:09:27.662Z,56.37
2022-11-12T12:12:10.395Z,52.30
2022-11-12T12:14:42.766Z,53.15
2022-11-12T12:17:22.297Z,52.25
2022-11-12T12:20:00.132Z,41.45
2022-11-12T12:22:46.264Z,61.47
2022-11-12T12:25:19.011Z,48.85
2022-11-12T12:28:13.292Z,48.08
2022-11-12T12:30:46.243Z,57.65
2022-11-12T12:33:38.323Z,62.63
2022-11-12T12:36:08.583Z,58.67
2022-11-12T12:38:45.258Z,53.95
2022-11-12T12:41:15.605Z,47.40
2022-11-12T12:43:53.270Z,51.53
2022-11-12T12:46:23.304Z,53.75
2022-11-12T12:48:58.250Z,56.90
2022-11-12T12:51:28.278Z,59.05
2022-11-12T12:54:02.418Z,49.90
2022-11-12T12:56:29.879Z,46.13
2022-11-12T12:58:58.040Z,45.50
2022-11-12T13:01:38.259Z,54.40
2022-11-12T13:04:15.214Z,51.28
2022-11-12T13:06:55.526Z,51.28
2022-11-12T13:09:36.186Z,57.70
2022-11-12T13:12:06.389Z,57.83
2022-11-12T13:14:46.207Z,48.95
2022-11-12T13:17:15.228Z,40.63
2022-11-12T13:19:52.380Z,62.45
2022-11-12T13:22:19.579Z,57.05
2022-11-12T13:25:11.247Z,60.58
2022-11-12T13:27:42.560Z,49.50
2022-11-12T13:30:27.456Z,47.83
2022-11-12T13:32:55.858Z,44.70
2022-11-12T13:35:26.140Z,64.05
2022-11-12T13:38:00.281Z,50.25
2022-11-12T13:40:37.345Z,40.20
2022-11-12T13:43:11.726Z,59.35
2022-11-12T13:45:48.367Z,48.80
2022-11-12T13:48:18.090Z,52.80
2022-11-12T13:50:57.397Z,43.67
2022-11-12T13:53:32.766Z,48.10
2022-11-12T13:56:06.247Z,48.90
2022-11-12T13:58:41.362Z,46.55
2022-11-12T14:01:08.730Z,42.97
2022-11-12T14:03:50.327Z,44.05
2022-11-12T14:06:34.341Z,43.47
2022-11-12T14:09:28.343Z,50.15
2022-11-12T14:12:14.134Z,54.45
2022-11-12T14:14:51.354Z,55.47
2022-11-12T14:17:37.303Z,59.13
2022-11-12T14:20:31.311Z,49.08
2022-11-12T14:23:04.663Z,41.92
2022-11-12T14:25:38.452Z,38.38
2022-11-12T14:28:06.273Z,46.00
2022-11-12T14:30:33.462Z,35.90
2022-11-12T14:33:08.313Z,63.15
2022-11-12T14:35:36.698Z,52.45
2022-11-12T14:38:13.340Z,49.95
2022-11-12T14:40:46.635Z,46.92
2022-11-12T14:43:38.430Z,47.42
2022-11-12T14:46:06.698Z,43.67
2022-11-12T14:48:43.364Z,50.75
2022-11-12T14:51:12.476Z,47.85
2022-11-12T14:53:57.340Z,43.25
2022-11-12T14:56:47.760Z,49.00
2022-11-12T14:59:22.387Z,50.05
2022-11-12T15:05:26.311Z,52.38
2022-11-12T15:08:14.267Z,60.85
2022-11-12T15:10:42.627Z,53.50
2022-11-12T15:13:27.628Z,56.45
2022-11-12T15:15:56.847Z,48.95
2022-11-12T15:18:25.747Z,54.70
2022-11-12T15:21:15.331Z,41.72
2022-11-12T15:23:59.260Z,51.08
2022-11-12T15:26:48.574Z,53.80
2022-11-12T15:29:28.407Z,47.47
2022-11-12T15:32:01.844Z,62.38
2022-11-12T15:34:40.328Z,51.00
2022-11-12T15:37:19.787Z,59.45
2022-11-12T15:39:59.275Z,51.28
2022-11-12T15:42:26.518Z,62.65
2022-11-12T15:45:04.246Z,47.92
2022-11-12T15:47:31.557Z,46.08
2022-11-12T15:50:06.388Z,51.58
2022-11-12T15:52:33.607Z,59.72
2022-11-12T15:55:00.701Z,48.70
2022-11-12T15:57:36.513Z,54.38
2022-11-12T16:00:22.665Z,45.90
2022-11-12T16:03:03.537Z,40.20
2022-11-12T16:05:50.260Z,44.58
2022-11-12T16:08:24.548Z,47.30
2022-11-12T16:10:51.774Z,49.22
2022-11-12T16:13:35.343Z,48.38
2022-11-12T16:16:04.574Z,51.15
2022-11-12T16:18:31.672Z,45.08
2022-11-12T16:21:05.343Z,45.67
2022-11-12T16:23:32.637Z,50.75
2022-11-12T16:26:07.367Z,40.00
2022-11-12T16:28:35.558Z,55.28
2022-11-12T16:31:09.340Z,53.75
2022-11-12T16:33:36.610Z,49.20
2022-11-12T16:36:10.545Z,45.88
2022-11-12T16:38:37.721Z,48.05
2022-11-12T16:41:04.901Z,44.80
2022-11-12T16:43:38.426Z,42.67
2022-11-12T16:46:22.449Z,48.30
2022-11-12T16:48:49.711Z,42.28
2022-11-12T16:51:18.015Z,46.65
2022-11-12T16:53:52.419Z,44.00
2022-11-12T16:56:20.492Z,43.05
2022-11-12T16:58:55.422Z,47.00
2022-11-12T17:01:28.711Z,41.95
2022-11-12T17:04:03.343Z,55.72
2022-11-12T17:06:52.361Z,46.58
2022-11-12T17:09:26.409Z,50.42
2022-11-12T17:11:56.622Z,41.90
2022-11-12T17:14:30.476Z,50.10
2022-11-12T17:16:57.605Z,41.72
2022-11-12T17:19:24.727Z,50.50
2022-11-12T17:21:58.345Z,47.75
2022-11-12T17:24:27.000Z,40.53
2022-11-12T17:27:00.578Z,39.90
2022-11-12T17:29:28.474Z,49.42
2022-11-12T17:31:55.655Z,36.63
2022-11-12T17:34:29.369Z,40.42
2022-11-12T17:36:56.547Z,38.42
2022-11-12T17:39:30.376Z,32.83
2022-11-12T17:41:57.535Z,37.03
2022-11-12T17:44:31.450Z,46.85
2022-11-12T17:46:58.705Z,29.90
2022-11-12T17:49:32.382Z,43.22
2022-11-12T17:51:59.615Z,37.60
2022-11-12T17:54:26.722Z,39.65
2022-11-12T17:57:00.435Z,34.35
2022-11-12T17:59:27.670Z,33.42
2022-11-12T18:02:01.351Z,38.67
2022-11-12T18:04:30.994Z,30.88
2022-11-12T18:07:11.534Z,30.35
2022-11-12T18:09:38.790Z,35.10
2022-11-12T18:12:06.639Z,34.65
2022-11-12T18:14:40.433Z,37.10
2022-11-12T18:17:08.083Z,29.27
2022-11-12T18:19:41.856Z,30.42
2022-11-12T18:22:11.525Z,27.60
2022-11-12T18:24:45.500Z,32.67
2022-11-12T18:27:12.726Z,33.80
2022-11-12T18:29:41.538Z,32.97
2022-11-12T18:32:15.381Z,33.40
2022-11-12T18:34:45.296Z,25.42
2022-11-12T18:37:19.457Z,36.50
2022-11-12T18:39:46.681Z,35.55
2022-11-12T18:42:20.470Z,32.00
2022-11-12T18:44:48.197Z,29.52
2022-11-12T18:47:22.510Z,28.30
2022-11-12T18:49:49.666Z,33.78
2022-11-12T18:52:17.160Z,32.42
2022-11-12T18:54:51.400Z,27.52
2022-11-12T18:57:18.650Z,25.67
2022-11-12T18:59:45.733Z,22.38
2022-11-12T19:02:19.408Z,31.80
2022-11-12T19:04:46.556Z,24.58
2022-11-12T19:07:27.554Z,29.70
2022-11-12T19:10:14.583Z,17.17
2022-11-12T19:12:49.628Z,25.58
2022-11-12T19:15:16.845Z,26.95
2022-11-12T19:17:43.971Z,31.88
2022-11-12T19:20:18.401Z,30.17
2022-11-12T19:22:45.635Z,34.03
2022-11-12T19:25:19.462Z,32.05
2022-11-12T19:27:46.685Z,33.78
2022-11-12T19:30:14.139Z,40.40
2022-11-12T19:32:48.627Z,25.50
2022-11-12T19:35:15.929Z,32.58
2022-11-12T19:37:43.062Z,34.15
2022-11-12T19:40:17.492Z,29.75
2022-11-12T19:42:47.411Z,38.85
2022-11-12T19:45:21.418Z,28.15
2022-11-12T19:47:50.787Z,29.08
2022-11-12T19:50:24.943Z,27.38
2022-11-12T19:52:55.182Z,25.92
2022-11-12T19:55:22.296Z,26.60
2022-11-12T19:57:56.512Z,38.75
2022-11-12T20:00:23.710Z,29.75
2022-11-12T20:02:57.636Z,24.40
2022-11-12T20:05:25.097Z,29.38
2022-11-12T20:08:06.468Z,31.33
2022-11-12T20:10:40.335Z,33.67
2022-11-12T20:13:07.501Z,28.65
2022-11-12T20:15:41.473Z,27.30
2022-11-12T20:18:09.078Z,33.33
2022-11-12T20:23:09.494Z,31.17
2022-11-12T20:25:36.799Z,31.25
2022-11-12T20:28:03.939Z,32.22
2022-11-12T20:30:37.436Z,30.75
2022-11-12T20:33:04.747Z,28.33
2022-11-12T20:35:41.524Z,36.80
2022-11-12T20:38:08.774Z,28.77
2022-11-12T20:40:35.899Z,31.08
2022-11-12T20:43:09.684Z,32.72
2022-11-12T20:45:36.905Z,29.35
2022-11-12T20:48:04.091Z,31.20
2022-11-12T20:50:38.493Z,34.83
2022-11-12T20:53:05.741Z,28.45
2022-11-12T20:55:40.569Z,27.52
2022-11-12T20:58:36.359Z,28.58
2022-11-12T21:01:11.572Z,29.27
2022-11-12T21:03:39.708Z,28.15
2022-11-12T21:06:31.576Z,30.17
2022-11-12T21:09:00.202Z,37.00
2022-11-12T21:11:27.454Z,37.20
2022-11-12T21:14:01.585Z,29.50
2022-11-12T21:16:28.859Z,28.98
2022-11-12T21:18:56.041Z,27.63
2022-11-12T21:21:31.473Z,20.50
2022-11-12T21:24:03.564Z,27.70
2022-11-12T21:26:38.548Z,34.95
2022-11-12T21:29:07.065Z,23.95
2022-11-12T21:31:34.311Z,30.23
2022-11-12T21:34:10.430Z,29.98
2022-11-12T21:36:37.679Z,21.95
2022-11-12T21:39:11.471Z,29.02
2022-11-12T21:41:38.677Z,24.17
2022-11-12T21:44:05.861Z,23.95
2022-11-12T21:46:39.503Z,18.17
2022-11-12T21:49:06.763Z,27.10
2022-11-12T21:51:40.597Z,25.02
2022-11-12T21:54:08.099Z,19.80
2022-11-12T21:56:35.404Z,23.83
2022-11-12T21:59:10.447Z,23.58
2022-11-12T22:01:37.742Z,22.52
2022-11-12T22:04:17.984Z,26.25
2022-11-12T22:07:05.432Z,25.40
2022-11-12T22:09:39.480Z,14.85
2022-11-12T22:12:06.775Z,23.20
2022-11-12T22:14:33.881Z,26.17
2022-11-12T22:17:07.560Z,22.50
2022-11-12T22:19:34.784Z,19.50
2022-11-12T22:22:08.531Z,29.20
2022-11-12T22:24:35.805Z,13.52
2022-11-12T22:27:05.568Z,23.73
2022-11-12T22:29:39.564Z,25.35
2022-11-12T22:32:06.849Z,25.95
2022-11-12T22:34:40.587Z,20.92
2022-11-12T22:37:07.866Z,20.67
2022-11-12T22:39:34.972Z,23.67
2022-11-12T22:42:08.690Z,21.00
2022-11-12T22:44:36.080Z,16.80
2022-11-12T22:47:03.227Z,26.90
2022-11-12T22:49:36.539Z,22.90
2022-11-12T22:52:10.408Z,26.30
2022-11-12T22:54:37.754Z,22.30
2022-11-12T22:57:04.958Z,22.75
2022-11-12T22:59:38.507Z,34.42
2022-11-12T23:02:07.839Z,22.55
2022-11-12T23:04:41.668Z,28.50
2022-11-12T23:07:28.394Z,21.52
2022-11-12T23:10:02.597Z,25.33
2022-11-12T23:12:30.340Z,24.00
2022-11-12T23:14:57.459Z,20.85
2022-11-12T23:17:31.564Z,18.30
2022-11-12T23:19:58.705Z,22.48
2022-11-12T23:22:32.835Z,27.38
2022-11-12T23:25:00.141Z,20.35
2022-11-12T23:27:27.225Z,17.88
2022-11-12T23:30:00.518Z,24.48
2022-11-12T23:32:27.682Z,24.42
2022-11-12T23:35:01.551Z,20.52
2022-11-12T23:37:28.759Z,21.58
2022-11-12T23:39:55.881Z,26.98
2022-11-12T23:42:29.534Z,21.83
2022-11-12T23:44:56.731Z,23.45
2022-11-12T23:47:30.554Z,20.38
2022-11-12T23:49:57.799Z,17.17
2022-11-12T23:52:24.936Z,21.92
2022-11-12T23:54:58.577Z,21.60
2022-11-12T23:57:25.724Z,21.92
2022-11-12T23:59:59.685Z,23.65
